^^
Grace C. Lehan Memorial Weather Station Historical Data
Daily Summary for September 27, 2022 Units:  Both    English   Metric
Daily Weekly Monthly Yearly
  High: Low: Average:
Temperature: 57.7 °F /  14.3 °C 39.7 °F /  4.3 °C 48.3 °F /  9.1 °C
Dew Point: 56.7 °F /  13.7 °C 31.5 °F /  -0.3 °C 41.7 °F /  5.4 °C
Humidity: 96.7% 56% 79%
Wind Speed: 11mph /  17.7km/h - 0.5mph /  0.8km/h
Wind Gust: 23mph /  37km/h - -
Wind- - SW
Pressure: 29.88 in /  1011.7 hPa 29.26 in /  990.7 hPa -
Precipitation: 0.40 in /  10.16 mm    
 
 
Tabular Data for September 27, 2022
Time Temperature Dew Point Pressure Wind Wind Speed Wind Gust Humidity Rainfall Rate (Hourly) solar
00:04 43 °F /  6.1 °C 32.4 °F /  0.2 °C 29.87in /  1011.4hPa Calm     65.9% 0.00in /  0mm 0 W/m2
00:09 42.7 °F /  5.9 °C 32.4 °F /  0.2 °C 29.87in /  1011.4hPa Calm     66.7% 0.00in /  0mm 0 W/m2
00:14 42.5 °F /  5.8 °C 32.3 °F /  0.2 °C 29.87in /  1011.4hPa Calm     67% 0.00in /  0mm 0 W/m2
00:19 42.3 °F /  5.7 °C 32.2 °F /  0.1 °C 29.86in /  1011.1hPa Calm     67% 0.00in /  0mm 0 W/m2
00:24 42.2 °F /  5.7 °C 32.3 °F /  0.2 °C 29.87in /  1011.4hPa Calm     67.7% 0.00in /  0mm 0 W/m2
00:29 42.2 °F /  5.7 °C 32.4 °F /  0.2 °C 29.87in /  1011.4hPa Calm     68% 0.00in /  0mm 0 W/m2
00:34 42.3 °F /  5.7 °C 32.5 °F /  0.3 °C 29.87in /  1011.4hPa Calm     68% 0.00in /  0mm 0 W/m2
00:39 42.3 °F /  5.7 °C 32.5 °F /  0.3 °C 29.87in /  1011.4hPa Calm     68% 0.00in /  0mm 0 W/m2
00:44 42.2 °F /  5.7 °C 32.4 °F /  0.2 °C 29.87in /  1011.4hPa Calm     68% 0.00in /  0mm 0 W/m2
00:49 42.1 °F /  5.6 °C 32.4 °F /  0.2 °C 29.87in /  1011.4hPa Calm     68% 0.00in /  0mm 0 W/m2
00:54 42.1 °F /  5.6 °C 32.3 °F /  0.2 °C 29.87in /  1011.4hPa Calm     68% 0.00in /  0mm 0 W/m2
00:59 42 °F /  5.6 °C 32.2 °F /  0.1 °C 29.88in /  1011.7hPa WSW 0.3mph /  0.5km/h 3mph /  4.8km/h 68% 0.00in /  0mm 0 W/m2
01:04 42 °F /  5.6 °C 32.2 °F /  0.1 °C 29.87in /  1011.4hPa WSW 0.1mph /  0.2km/h 3mph /  4.8km/h 68% 0.00in /  0mm 0 W/m2
01:09 42 °F /  5.6 °C 32.2 °F /  0.1 °C 29.87in /  1011.4hPa WSW 0.1mph /  0.2km/h 2mph /  3.2km/h 68% 0.00in /  0mm 0 W/m2
01:14 42.2 °F /  5.7 °C 32.4 °F /  0.2 °C 29.87in /  1011.4hPa Calm   2mph /  3.2km/h 68% 0.00in /  0mm 0 W/m2
01:19 42.3 °F /  5.7 °C 32.5 °F /  0.3 °C 29.87in /  1011.4hPa Calm   2mph /  3.2km/h 68% 0.00in /  0mm 0 W/m2
01:24 42.4 °F /  5.8 °C 32.6 °F /  0.3 °C 29.87in /  1011.4hPa Calm   2mph /  3.2km/h 68% 0.00in /  0mm 0 W/m2
01:29 42.6 °F /  5.9 °C 32.5 °F /  0.3 °C 29.87in /  1011.4hPa Calm   2mph /  3.2km/h 67% 0.00in /  0mm 0 W/m2
01:34 42.8 °F /  6 °C 32.6 °F /  0.3 °C 29.86in /  1011.1hPa Calm   2mph /  3.2km/h 67% 0.00in /  0mm 0 W/m2
01:39 42.8 °F /  6 °C 32.6 °F /  0.3 °C 29.87in /  1011.4hPa Calm     67% 0.00in /  0mm 0 W/m2
01:44 42.8 °F /  6 °C 32.6 °F /  0.3 °C 29.87in /  1011.4hPa Calm     67% 0.00in /  0mm 0 W/m2
01:49 42.8 °F /  6 °C 32.6 °F /  0.3 °C 29.87in /  1011.4hPa Calm     67% 0.00in /  0mm 0 W/m2
01:54 42.6 °F /  5.9 °C 32.4 °F /  0.2 °C 29.86in /  1011.1hPa Calm     67% 0.00in /  0mm 0 W/m2
01:59 42.4 °F /  5.8 °C 32.4 °F /  0.2 °C 29.86in /  1011.1hPa Calm     67.4% 0.00in /  0mm 0 W/m2
02:04 42.1 °F /  5.6 °C 32.4 °F /  0.2 °C 29.87in /  1011.4hPa Calm     68% 0.00in /  0mm 0 W/m2
02:09 42 °F /  5.6 °C 32.2 °F /  0.1 °C 29.87in /  1011.4hPa Calm     68% 0.00in /  0mm 0 W/m2
02:14 42 °F /  5.6 °C 32.2 °F /  0.1 °C 29.87in /  1011.4hPa Calm     68% 0.00in /  0mm 0 W/m2
02:19 42 °F /  5.6 °C 32.2 °F /  0.1 °C 29.87in /  1011.4hPa Calm     68% 0.00in /  0mm 0 W/m2
02:24 41.9 °F /  5.5 °C 32.1 °F /  0.1 °C 29.87in /  1011.4hPa Calm     68% 0.00in /  0mm 0 W/m2
02:29 41.9 °F /  5.5 °C 32.1 °F /  0.1 °C 29.87in /  1011.4hPa Calm     68% 0.00in /  0mm 0 W/m2
02:34 42 °F /  5.6 °C 32.3 °F /  0.2 °C 29.87in /  1011.4hPa Calm     68% 0.00in /  0mm 0 W/m2
02:39 42.1 °F /  5.6 °C 32.3 °F /  0.2 °C 29.87in /  1011.4hPa Calm     68% 0.00in /  0mm 0 W/m2
02:44 42.1 °F /  5.6 °C 32.3 °F /  0.2 °C 29.86in /  1011.1hPa Calm     68% 0.00in /  0mm 0 W/m2
02:49 42 °F /  5.6 °C 32.2 °F /  0.1 °C 29.87in /  1011.4hPa Calm     68% 0.00in /  0mm 0 W/m2
02:54 41.9 °F /  5.5 °C 32.1 °F /  0.1 °C 29.87in /  1011.4hPa Calm     68% 0.00in /  0mm 0 W/m2
02:59 41.7 °F /  5.4 °C 32 °F /  0 °C 29.86in /  1011.1hPa Calm     68% 0.00in /  0mm 0 W/m2
03:04 41.5 °F /  5.3 °C 32.1 °F /  0.1 °C 29.86in /  1011.1hPa Calm     68.9% 0.00in /  0mm 0 W/m2
03:09 41.3 °F /  5.2 °C 31.9 °F /  -0.1 °C 29.86in /  1011.1hPa Calm     69% 0.00in /  0mm 0 W/m2
03:14 41.1 °F /  5.1 °C 31.8 °F /  -0.1 °C 29.86in /  1011.1hPa Calm     69.3% 0.00in /  0mm 0 W/m2
03:19 40.9 °F /  4.9 °C 31.9 °F /  -0.1 °C 29.86in /  1011.1hPa Calm     70% 0.00in /  0mm 0 W/m2
03:24 40.8 °F /  4.9 °C 31.8 °F /  -0.1 °C 29.86in /  1011.1hPa Calm     70% 0.00in /  0mm 0 W/m2
03:29 40.7 °F /  4.8 °C 31.9 °F /  -0.1 °C 29.86in /  1011.1hPa Calm     70.6% 0.00in /  0mm 0 W/m2
03:34 40.6 °F /  4.8 °C 31.9 °F /  -0.1 °C 29.86in /  1011.1hPa Calm     71% 0.00in /  0mm 0 W/m2
03:39 40.5 °F /  4.7 °C 31.8 °F /  -0.1 °C 29.86in /  1011.1hPa Calm     71% 0.00in /  0mm 0 W/m2
03:44 40.4 °F /  4.7 °C 31.8 °F /  -0.1 °C 29.86in /  1011.1hPa Calm     71% 0.00in /  0mm 0 W/m2
03:49 40.4 °F /  4.7 °C 32.1 °F /  0.1 °C 29.86in /  1011.1hPa Calm     71.9% 0.00in /  0mm 0 W/m2
03:54 40.4 °F /  4.7 °C 32 °F /  0 °C 29.86in /  1011.1hPa Calm     71.7% 0.00in /  0mm 0 W/m2
03:59 40.5 °F /  4.7 °C 31.9 °F /  -0.1 °C 29.86in /  1011.1hPa Calm     71.2% 0.00in /  0mm 0 W/m2
04:09 40.6 °F /  4.8 °C 32 °F /  0 °C 29.86in /  1011.1hPa Calm     71% 0.00in /  0mm 0 W/m2
04:14 40.7 °F /  4.8 °C 32 °F /  0 °C 29.85in /  1010.7hPa Calm     71% 0.00in /  0mm 0 W/m2
04:19 40.8 °F /  4.9 °C 32 °F /  0 °C 29.86in /  1011.1hPa Calm     70.5% 0.00in /  0mm 0 W/m2
04:24 40.8 °F /  4.9 °C 31.8 °F /  -0.1 °C 29.85in /  1010.7hPa Calm     70.1% 0.00in /  0mm 0 W/m2
04:29 40.7 °F /  4.8 °C 31.7 °F /  -0.2 °C 29.85in /  1010.7hPa Calm     70% 0.00in /  0mm 0 W/m2
04:34 40.6 °F /  4.8 °C 31.6 °F /  -0.2 °C 29.85in /  1010.7hPa Calm     70% 0.00in /  0mm 0 W/m2
04:39 40.6 °F /  4.8 °C 31.8 °F /  -0.1 °C 29.85in /  1010.7hPa Calm     70.6% 0.00in /  0mm 0 W/m2
04:44 40.5 °F /  4.7 °C 31.9 °F /  -0.1 °C 29.85in /  1010.7hPa Calm     71% 0.00in /  0mm 0 W/m2
04:49 40.4 °F /  4.7 °C 31.8 °F /  -0.1 °C 29.85in /  1010.7hPa Calm     71% 0.00in /  0mm 0 W/m2
04:54 40.3 °F /  4.6 °C 31.7 °F /  -0.2 °C 29.85in /  1010.7hPa Calm     71% 0.00in /  0mm 0 W/m2
04:59 40.3 °F /  4.6 °C 31.7 °F /  -0.2 °C 29.84in /  1010.4hPa Calm     71% 0.00in /  0mm 0 W/m2
05:04 40.2 °F /  4.6 °C 31.6 °F /  -0.2 °C 29.85in /  1010.7hPa Calm     71.2% 0.00in /  0mm 0 W/m2
05:09 40.1 °F /  4.5 °C 31.7 °F /  -0.2 °C 29.85in /  1010.7hPa Calm     71.7% 0.00in /  0mm 0 W/m2
05:14 40 °F /  4.4 °C 31.7 °F /  -0.2 °C 29.85in /  1010.7hPa Calm     72% 0.00in /  0mm 0 W/m2
05:19 39.9 °F /  4.4 °C 31.6 °F /  -0.2 °C 29.85in /  1010.7hPa Calm     72% 0.00in /  0mm 0 W/m2
05:24 39.8 °F /  4.3 °C 31.6 °F /  -0.2 °C 29.85in /  1010.7hPa Calm     72% 0.00in /  0mm 0 W/m2
05:30 39.7 °F /  4.3 °C 31.8 °F /  -0.1 °C 29.84in /  1010.4hPa Calm     73% 0.00in /  0mm 0 W/m2
06:00 40.2 °F /  4.6 °C 31.9 °F /  -0.1 °C 29.85in /  1010.7hPa Calm     72% 0.00in /  0mm 0 W/m2
06:30 40.5 °F /  4.7 °C 31.9 °F /  -0.1 °C 29.85in /  1010.7hPa Calm     71% 0.00in /  0mm 0 W/m2
07:00 39.8 °F /  4.3 °C 31.5 °F /  -0.3 °C 29.84in /  1010.4hPa Calm     72% 0.00in /  0mm 0 W/m2
07:30 40.4 °F /  4.7 °C 31.8 °F /  -0.1 °C 29.83in /  1010hPa Calm     71% 0.00in /  0mm 18 W/m2
08:04 41.3 °F /  5.2 °C 32.3 °F /  0.2 °C 29.83in /  1010hPa Calm     70.1% 0.00in /  0mm 54 W/m2
08:09 41.4 °F /  5.2 °C 32.4 °F /  0.2 °C 29.82in /  1009.7hPa Calm     70% 0.00in /  0mm 53 W/m2
08:14 41.5 °F /  5.3 °C 32.5 °F /  0.3 °C 29.82in /  1009.7hPa Calm     70% 0.00in /  0mm 47 W/m2
08:19 41.6 °F /  5.3 °C 32.6 °F /  0.3 °C 29.81in /  1009.4hPa Calm     70% 0.00in /  0mm 42 W/m2
08:24 41.7 °F /  5.4 °C 32.7 °F /  0.4 °C 29.81in /  1009.4hPa Calm     70% 0.00in /  0mm 40 W/m2
08:29 41.8 °F /  5.4 °C 32.7 °F /  0.4 °C 29.81in /  1009.4hPa Calm     70% 0.00in /  0mm 46 W/m2
08:34 41.9 °F /  5.5 °C 32.8 °F /  0.4 °C 29.81in /  1009.4hPa Calm     70% 0.00in /  0mm 58 W/m2
08:39 42 °F /  5.6 °C 32.9 °F /  0.5 °C 29.81in /  1009.4hPa Calm     70% 0.00in /  0mm 63 W/m2
08:44 42.1 °F /  5.6 °C 33.3 °F /  0.7 °C 29.81in /  1009.4hPa Calm     70.6% 0.00in /  0mm 63 W/m2
08:49 42.2 °F /  5.7 °C 33.2 °F /  0.7 °C 29.81in /  1009.4hPa Calm     70.1% 0.00in /  0mm 62 W/m2
08:54 42.3 °F /  5.7 °C 33.3 °F /  0.7 °C 29.81in /  1009.4hPa Calm     70% 0.00in /  0mm 53 W/m2
08:59 42.5 °F /  5.8 °C 33.3 °F /  0.7 °C 29.81in /  1009.4hPa Calm     69.7% 0.00in /  0mm 47 W/m2
09:04 42.6 °F /  5.9 °C 33.3 °F /  0.7 °C 29.80in /  1009hPa Calm     69.5% 0.00in /  0mm 49 W/m2
09:09 42.7 °F /  5.9 °C 33.2 °F /  0.7 °C 29.81in /  1009.4hPa Calm     69% 0.00in /  0mm 54 W/m2
09:14 42.8 °F /  6 °C 33.7 °F /  0.9 °C 29.80in /  1009hPa Calm     70.1% 0.00in /  0mm 67 W/m2
09:19 42.9 °F /  6.1 °C 34 °F /  1.1 °C 29.80in /  1009hPa Calm     70.5% 0.00in /  0mm 83 W/m2
09:24 43.1 °F /  6.2 °C 34.1 °F /  1.2 °C 29.79in /  1008.7hPa Calm     70.2% 0.00in /  0mm 109 W/m2
09:29 43.3 °F /  6.3 °C 33.7 °F /  0.9 °C 29.79in /  1008.7hPa Calm     68.7% 0.00in /  0mm 111 W/m2
09:34 43.6 °F /  6.4 °C 33.6 °F /  0.9 °C 29.79in /  1008.7hPa WSW 0.1mph /  0.2km/h 2mph /  3.2km/h 67.4% 0.00in /  0mm 121 W/m2
09:39 44 °F /  6.7 °C 33.4 °F /  0.8 °C 29.80in /  1009hPa WSW 0.2mph /  0.3km/h 3mph /  4.8km/h 66% 0.00in /  0mm 132 W/m2
09:44 44.4 °F /  6.9 °C 33.5 °F /  0.8 °C 29.80in /  1009hPa Calm   3mph /  4.8km/h 65.2% 0.00in /  0mm 132 W/m2
09:49 44.8 °F /  7.1 °C 33.8 °F /  1 °C 29.79in /  1008.7hPa Calm   3mph /  4.8km/h 65.1% 0.00in /  0mm 97 W/m2
09:54 45.1 °F /  7.3 °C 33.6 °F /  0.9 °C 29.79in /  1008.7hPa Calm   3mph /  4.8km/h 64% 0.00in /  0mm 84 W/m2
09:59 45.3 °F /  7.4 °C 34.2 °F /  1.2 °C 29.79in /  1008.7hPa Calm   3mph /  4.8km/h 64.9% 0.00in /  0mm 83 W/m2
10:04 45.5 °F /  7.5 °C 34.4 °F /  1.3 °C 29.80in /  1009hPa Calm   3mph /  4.8km/h 65% 0.00in /  0mm 88 W/m2
10:09 45.6 °F /  7.6 °C 34.8 °F /  1.6 °C 29.80in /  1009hPa Calm     65.7% 0.00in /  0mm 114 W/m2
10:14 45.8 °F /  7.7 °C 35 °F /  1.7 °C 29.78in /  1008.4hPa Calm     65.7% 0.00in /  0mm 135 W/m2
10:19 46 °F /  7.8 °C 34.9 °F /  1.6 °C 29.79in /  1008.7hPa Calm     64.9% 0.00in /  0mm 139 W/m2
10:24 46.3 °F /  7.9 °C 34.5 °F /  1.4 °C 29.78in /  1008.4hPa Calm     63% 0.00in /  0mm 148 W/m2
10:29 46.8 °F /  8.2 °C 34.4 °F /  1.3 °C 29.78in /  1008.4hPa WSW 0.3mph /  0.5km/h 3mph /  4.8km/h 62% 0.00in /  0mm 137 W/m2
10:34 47.2 °F /  8.4 °C 34.4 °F /  1.3 °C 29.77in /  1008hPa Calm   3mph /  4.8km/h 61% 0.00in /  0mm 123 W/m2
10:39 47.5 °F /  8.6 °C 34.7 °F /  1.5 °C 29.77in /  1008hPa Calm     61% 0.00in /  0mm 107 W/m2
10:44 47.7 °F /  8.7 °C 34.8 °F /  1.6 °C 29.77in /  1008hPa Calm     60.7% 0.00in /  0mm 97 W/m2
10:49 47.9 °F /  8.8 °C 34.6 °F /  1.4 °C 29.77in /  1008hPa Calm   1mph /  1.6km/h 59.7% 0.00in /  0mm 91 W/m2
10:54 48.1 °F /  8.9 °C 34.4 °F /  1.3 °C 29.76in /  1007.7hPa Calm   1mph /  1.6km/h 58.8% 0.00in /  0mm 107 W/m2
10:59 48.3 °F /  9.1 °C 34.7 °F /  1.5 °C 29.76in /  1007.7hPa Calm   1mph /  1.6km/h 59% 0.00in /  0mm 107 W/m2
11:04 48.5 °F /  9.2 °C 34.5 °F /  1.4 °C 29.75in /  1007.3hPa Calm   1mph /  1.6km/h 58.2% 0.00in /  0mm 118 W/m2
11:09 48.7 °F /  9.3 °C 34.6 °F /  1.4 °C 29.75in /  1007.3hPa Calm     58% 0.00in /  0mm 118 W/m2
11:14 49 °F /  9.4 °C 34.8 °F /  1.6 °C 29.75in /  1007.3hPa WSW 0.1mph /  0.2km/h 3mph /  4.8km/h 57.8% 0.00in /  0mm 107 W/m2
11:19 49.2 °F /  9.6 °C 34.3 °F /  1.3 °C 29.74in /  1007hPa WSW 0.1mph /  0.2km/h 3mph /  4.8km/h 56.2% 0.00in /  0mm 109 W/m2
11:24 49.5 °F /  9.7 °C 34.5 °F /  1.4 °C 29.73in /  1006.7hPa WSW 0.3mph /  0.5km/h 3mph /  4.8km/h 56.1% 0.00in /  0mm 113 W/m2
11:29 49.7 °F /  9.8 °C 34.7 °F /  1.5 °C 29.73in /  1006.7hPa WSW 0.1mph /  0.2km/h 3mph /  4.8km/h 56% 0.00in /  0mm 104 W/m2
11:34 50 °F /  10 °C 34.9 °F /  1.6 °C 29.73in /  1006.7hPa Calm   3mph /  4.8km/h 56% 0.00in /  0mm 88 W/m2
11:39 50.2 °F /  10.1 °C 35.1 °F /  1.7 °C 29.72in /  1006.3hPa WSW 0.4mph /  0.6km/h 4mph /  6.4km/h 56% 0.00in /  0mm 81 W/m2
11:44 50.4 °F /  10.2 °C 35.5 °F /  1.9 °C 29.72in /  1006.3hPa WSW 0.9mph /  1.4km/h 4mph /  6.4km/h 56.5% 0.00in /  0mm 83 W/m2
11:49 50.5 °F /  10.3 °C 36 °F /  2.2 °C 29.71in /  1006hPa WSW 0.8mph /  1.3km/h 5mph /  8km/h 57.2% 0.00in /  0mm 84 W/m2
11:54 50.7 °F /  10.4 °C 36.9 °F /  2.7 °C 29.71in /  1006hPa WSW 0.8mph /  1.3km/h 5mph /  8km/h 59.1% 0.00in /  0mm 76 W/m2
11:59 50.8 °F /  10.4 °C 37.6 °F /  3.1 °C 29.71in /  1006hPa WSW 0.1mph /  0.2km/h 5mph /  8km/h 60.6% 0.00in /  0mm 77 W/m2
12:04 50.9 °F /  10.5 °C 38.5 °F /  3.6 °C 29.71in /  1006hPa WSW 0.7mph /  1.1km/h 3mph /  4.8km/h 62.4% 0.00in /  0mm 102 W/m2
12:09 51 °F /  10.6 °C 39.1 °F /  3.9 °C 29.71in /  1006hPa WSW 0.4mph /  0.6km/h 3mph /  4.8km/h 63.7% 0.00in /  0mm 98 W/m2
12:14 51.1 °F /  10.6 °C 39.5 °F /  4.2 °C 29.70in /  1005.6hPa Calm   3mph /  4.8km/h 64.5% 0.00in /  0mm 77 W/m2
12:19 51.1 °F /  10.6 °C 39.4 °F /  4.1 °C 29.70in /  1005.6hPa WSW 0.7mph /  1.1km/h 5mph /  8km/h 64.2% 0.00in /  0mm 65 W/m2
12:24 51.1 °F /  10.6 °C 39.4 °F /  4.1 °C 29.70in /  1005.6hPa WSW 0.7mph /  1.1km/h 5mph /  8km/h 64% 0.00in /  0mm 67 W/m2
12:29 51.2 °F /  10.7 °C 39.5 °F /  4.2 °C 29.69in /  1005.3hPa WSW 0.3mph /  0.5km/h 5mph /  8km/h 64.2% 0.00in /  0mm 63 W/m2
12:34 51.2 °F /  10.7 °C 39.5 °F /  4.2 °C 29.69in /  1005.3hPa WSW 0.1mph /  0.2km/h 5mph /  8km/h 64.1% 0.00in /  0mm 47 W/m2
12:39 51.2 °F /  10.7 °C 39.6 °F /  4.2 °C 29.69in /  1005.3hPa WSW 0.5mph /  0.8km/h 3mph /  4.8km/h 64.4% 0.00in /  0mm 74 W/m2
12:44 51.2 °F /  10.7 °C 39.9 °F /  4.4 °C 29.69in /  1005.3hPa WSW 1.1mph /  1.8km/h 4mph /  6.4km/h 65% 0.00in /  0mm 83 W/m2
12:49 51.3 °F /  10.7 °C 39.9 °F /  4.4 °C 29.68in /  1005hPa WSW 1.1mph /  1.8km/h 4mph /  6.4km/h 65% 0.00in /  0mm 83 W/m2
12:54 51.4 °F /  10.8 °C 40 °F /  4.4 °C 29.68in /  1005hPa WSW 0.6mph /  1km/h 5mph /  8km/h 65% 0.00in /  0mm 83 W/m2
12:59 51.5 °F /  10.8 °C 40.1 °F /  4.5 °C 29.68in /  1005hPa WSW 0.1mph /  0.2km/h 5mph /  8km/h 65% 0.00in /  0mm 88 W/m2
13:04 51.6 °F /  10.9 °C 40.2 °F /  4.6 °C 29.68in /  1005hPa WSW 0.3mph /  0.5km/h 5mph /  8km/h 65% 0.00in /  0mm 91 W/m2
13:09 51.7 °F /  10.9 °C 40.4 °F /  4.7 °C 29.67in /  1004.6hPa WSW 0.2mph /  0.3km/h 3mph /  4.8km/h 65% 0.00in /  0mm 77 W/m2
13:14 51.9 °F /  11.1 °C 40.6 °F /  4.8 °C 29.67in /  1004.6hPa WSW 0.8mph /  1.3km/h 4mph /  6.4km/h 65% 0.00in /  0mm 72 W/m2
13:19 52.2 °F /  11.2 °C 40.8 °F /  4.9 °C 29.66in /  1004.3hPa WSW 0.3mph /  0.5km/h 4mph /  6.4km/h 65% 0.00in /  0mm 69 W/m2
13:24 52.4 °F /  11.3 °C 41.1 °F /  5.1 °C 29.66in /  1004.3hPa WSW 0.7mph /  1.1km/h 4mph /  6.4km/h 65.2% 0.00in /  0mm 58 W/m2
13:29 52.6 °F /  11.4 °C 41.6 °F /  5.3 °C 29.65in /  1003.9hPa WSW 0.6mph /  1km/h 4mph /  6.4km/h 66% 0.00in /  0mm 54 W/m2
13:34 52.7 °F /  11.5 °C 42 °F /  5.6 °C 29.65in /  1003.9hPa WSW 0.6mph /  1km/h 4mph /  6.4km/h 66.9% 0.00in /  0mm 35 W/m2
13:39 52.7 °F /  11.5 °C 42.8 °F /  6 °C 29.64in /  1003.6hPa WSW 0.9mph /  1.4km/h 4mph /  6.4km/h 69.1% 0.00in /  0mm 26 W/m2
13:44 52.5 °F /  11.4 °C 43.4 °F /  6.3 °C 29.64in /  1003.6hPa WSW 1.1mph /  1.8km/h 4mph /  6.4km/h 70.9% 0.00in /  0mm 25 W/m2
13:49 52.3 °F /  11.3 °C 44 °F /  6.7 °C 29.64in /  1003.6hPa WSW 0.5mph /  0.8km/h 4mph /  6.4km/h 73.1% 0.00in /  0mm 25 W/m2
13:54 52 °F /  11.1 °C 44.3 °F /  6.8 °C 29.64in /  1003.6hPa WSW 0.2mph /  0.3km/h 4mph /  6.4km/h 74.9% 0.01in /  0.25mm 21 W/m2
13:59 51.7 °F /  10.9 °C 44.5 °F /  6.9 °C 29.64in /  1003.6hPa WSW 0.6mph /  1km/h 4mph /  6.4km/h 76.4% 0.01in /  0.25mm 25 W/m2
14:04 51.4 °F /  10.8 °C 44.8 °F /  7.1 °C 29.64in /  1003.6hPa WSW 0.1mph /  0.2km/h 4mph /  6.4km/h 78% 0.01in /  0.25mm 32 W/m2
14:09 51.2 °F /  10.7 °C 44.9 °F /  7.2 °C 29.63in /  1003.3hPa SW 1mph /  1.6km/h 5mph /  8km/h 79% 0.01in /  0.25mm 33 W/m2
14:14 51.1 °F /  10.6 °C 45.1 °F /  7.3 °C 29.63in /  1003.3hPa SSW 0.8mph /  1.3km/h 5mph /  8km/h 80% 0.01in /  0.25mm 30 W/m2
14:19 51 °F /  10.6 °C 45.3 °F /  7.4 °C 29.63in /  1003.3hPa Calm   5mph /  8km/h 80.7% 0.01in /  0.25mm 19 W/m2
14:24 51 °F /  10.6 °C 45.6 °F /  7.6 °C 29.62in /  1002.9hPa SSW 0.3mph /  0.5km/h 5mph /  8km/h 81.8% 0.02in /  0.51mm 19 W/m2
14:29 50.9 °F /  10.5 °C 45.8 °F /  7.7 °C 29.62in /  1002.9hPa SSW 0.2mph /  0.3km/h 5mph /  8km/h 82.6% 0.02in /  0.51mm 14 W/m2
14:34 50.8 °F /  10.4 °C 46.1 °F /  7.8 °C 29.62in /  1002.9hPa SSW 1.4mph /  2.3km/h 6mph /  9.7km/h 83.8% 0.02in /  0.51mm 14 W/m2
14:39 50.6 °F /  10.3 °C 46 °F /  7.8 °C 29.61in /  1002.6hPa South 0.2mph /  0.3km/h 6mph /  9.7km/h 84.1% 0.02in /  0.51mm 19 W/m2
14:44 50.6 °F /  10.3 °C 46.3 °F /  7.9 °C 29.62in /  1002.9hPa Calm   6mph /  9.7km/h 85% 0.03in /  0.76mm 11 W/m2
14:49 50.5 °F /  10.3 °C 46.2 °F /  7.9 °C 29.62in /  1002.9hPa Calm   6mph /  9.7km/h 85% 0.03in /  0.76mm 9 W/m2
14:54 50.5 °F /  10.3 °C 46.2 °F /  7.9 °C 29.63in /  1003.3hPa Calm   6mph /  9.7km/h 85.1% 0.03in /  0.76mm 7 W/m2
14:59 50.4 °F /  10.2 °C 46.4 °F /  8 °C 29.63in /  1003.3hPa SSW 0.1mph /  0.2km/h 6mph /  9.7km/h 86% 0.04in /  1.02mm 7 W/m2
15:04 50.4 °F /  10.2 °C 46.5 °F /  8.1 °C 29.63in /  1003.3hPa Calm   6mph /  9.7km/h 86.4% 0.04in /  1.02mm 9 W/m2
15:09 50.3 °F /  10.2 °C 46.6 °F /  8.1 °C 29.63in /  1003.3hPa Calm     87% 0.05in /  1.27mm 9 W/m2
15:14 50.2 °F /  10.1 °C 46.5 °F /  8.1 °C 29.62in /  1002.9hPa Calm     87% 0.06in /  1.52mm 7 W/m2
15:19 50.1 °F /  10.1 °C 46.6 °F /  8.1 °C 29.62in /  1002.9hPa Calm     87.8% 0.07in /  1.78mm 0 W/m2
15:24 50 °F /  10 °C 46.6 °F /  8.1 °C 29.62in /  1002.9hPa Calm     88% 0.08in /  2.03mm 5 W/m2
15:29 49.9 °F /  9.9 °C 46.5 °F /  8.1 °C 29.62in /  1002.9hPa Calm     88% 0.10in /  2.54mm 5 W/m2
15:34 49.8 °F /  9.9 °C 46.7 °F /  8.2 °C 29.61in /  1002.6hPa Calm     88.9% 0.10in /  2.54mm 0 W/m2
15:39 49.7 °F /  9.8 °C 46.6 °F /  8.1 °C 29.62in /  1002.9hPa Calm     89% 0.12in /  3.05mm 0 W/m2
15:44 49.6 °F /  9.8 °C 46.6 °F /  8.1 °C 29.61in /  1002.6hPa Calm     89.3% 0.14in /  3.56mm 0 W/m2
15:49 49.6 °F /  9.8 °C 46.8 °F /  8.2 °C 29.61in /  1002.6hPa Calm     90% 0.16in /  4.06mm 0 W/m2
15:54 49.6 °F /  9.8 °C 46.8 °F /  8.2 °C 29.61in /  1002.6hPa Calm     90% 0.17in /  4.32mm 0 W/m2
15:59 49.5 °F /  9.7 °C 47 °F /  8.3 °C 29.61in /  1002.6hPa Calm     91% 0.18in /  4.57mm 0 W/m2
16:09 49.4 °F /  9.7 °C 46.9 °F /  8.3 °C 29.59in /  1001.9hPa Calm     91% 0.21in /  5.33mm 0 W/m2
16:14 49.3 °F /  9.6 °C 46.8 °F /  8.2 °C 29.59in /  1001.9hPa Calm     91% 0.23in /  5.84mm 0 W/m2
16:19 49.3 °F /  9.6 °C 47 °F /  8.3 °C 29.58in /  1001.6hPa SSW 0.1mph /  0.2km/h 2mph /  3.2km/h 91.7% 0.24in /  6.1mm 0 W/m2
16:24 49.2 °F /  9.6 °C 47 °F /  8.3 °C 29.57in /  1001.2hPa Calm   2mph /  3.2km/h 92% 0.25in /  6.35mm 0 W/m2
16:29 49.2 °F /  9.6 °C 47 °F /  8.3 °C 29.57in /  1001.2hPa Calm   2mph /  3.2km/h 92% 0.26in /  6.6mm 0 W/m2
16:34 49.2 °F /  9.6 °C 47.1 °F /  8.4 °C 29.55in /  1000.6hPa South 0.6mph /  1km/h 3mph /  4.8km/h 92.3% 0.26in /  6.6mm 0 W/m2
16:39 49.4 °F /  9.7 °C 47.4 °F /  8.6 °C 29.53in /  999.9hPa SSE 1.1mph /  1.8km/h 4mph /  6.4km/h 93% 0.19in /  4.83mm 0 W/m2
16:44 49.5 °F /  9.7 °C 47.5 °F /  8.6 °C 29.53in /  999.9hPa Calm   4mph /  6.4km/h 93% 0.19in /  4.83mm 0 W/m2
16:49 49.5 °F /  9.7 °C 47.6 °F /  8.7 °C 29.54in /  1000.2hPa Calm   4mph /  6.4km/h 93% 0.20in /  5.08mm 0 W/m2
16:54 49.6 °F /  9.8 °C 47.7 °F /  8.7 °C 29.53in /  999.9hPa SE 0.8mph /  1.3km/h 5mph /  8km/h 93% 0.20in /  5.08mm 0 W/m2
16:59 49.7 °F /  9.8 °C 48 °F /  8.9 °C 29.50in /  998.9hPa Calm   5mph /  8km/h 93.8% 0.20in /  5.08mm 0 W/m2
17:04 49.8 °F /  9.9 °C 48.2 °F /  9 °C 29.51in /  999.2hPa Calm   5mph /  8km/h 94% 0.20in /  5.08mm 0 W/m2
17:09 50 °F /  10 °C 48.3 °F /  9.1 °C 29.51in /  999.2hPa Calm     94% 0.03in /  0.76mm 0 W/m2
17:14 50 °F /  10 °C 48.3 °F /  9.1 °C 29.50in /  998.9hPa Calm     94% 0.04in /  1.02mm 0 W/m2
17:19 50.1 °F /  10.1 °C 48.4 °F /  9.1 °C 29.49in /  998.5hPa Calm     94% 0.04in /  1.02mm 0 W/m2
17:24 50.2 °F /  10.1 °C 48.5 °F /  9.2 °C 29.49in /  998.5hPa Calm     94% 0.04in /  1.02mm 0 W/m2
17:29 50.3 °F /  10.2 °C 48.6 °F /  9.2 °C 29.48in /  998.2hPa Calm     94% 0.04in /  1.02mm 0 W/m2
17:34 50.4 °F /  10.2 °C 48.8 °F /  9.3 °C 29.48in /  998.2hPa Calm   1mph /  1.6km/h 94% 0.04in /  1.02mm 0 W/m2
17:39 50.6 °F /  10.3 °C 48.9 °F /  9.4 °C 29.47in /  997.9hPa SE 0.1mph /  0.2km/h 2mph /  3.2km/h 94% 0.04in /  1.02mm 0 W/m2
17:44 50.8 °F /  10.4 °C 49.3 °F /  9.6 °C 29.47in /  997.9hPa SE 0.1mph /  0.2km/h 2mph /  3.2km/h 94.5% 0.05in /  1.27mm 0 W/m2
17:49 51 °F /  10.6 °C 49.5 °F /  9.7 °C 29.46in /  997.5hPa SE 0.3mph /  0.5km/h 3mph /  4.8km/h 94.7% 0.05in /  1.27mm 0 W/m2
17:54 51.2 °F /  10.7 °C 49.8 °F /  9.9 °C 29.46in /  997.5hPa SSE 0.5mph /  0.8km/h 4mph /  6.4km/h 95% 0.05in /  1.27mm 0 W/m2
17:59 51.4 °F /  10.8 °C 50 °F /  10 °C 29.45in /  997.2hPa SSE 0.6mph /  1km/h 4mph /  6.4km/h 95% 0.05in /  1.27mm 0 W/m2
18:04 51.5 °F /  10.8 °C 50.2 °F /  10.1 °C 29.45in /  997.2hPa SSE 0.8mph /  1.3km/h 6mph /  9.7km/h 95% 0.02in /  0.51mm 0 W/m2
18:09 51.7 °F /  10.9 °C 50.3 °F /  10.2 °C 29.44in /  996.8hPa South 0.8mph /  1.3km/h 6mph /  9.7km/h 95% 0.02in /  0.51mm 0 W/m2
18:14 51.8 °F /  11 °C 50.5 °F /  10.3 °C 29.44in /  996.8hPa South 0.3mph /  0.5km/h 6mph /  9.7km/h 95% 0.02in /  0.51mm 0 W/m2
18:19 52 °F /  11.1 °C 50.6 °F /  10.3 °C 29.44in /  996.8hPa South 1mph /  1.6km/h 6mph /  9.7km/h 95% 0.02in /  0.51mm 0 W/m2
18:24 52.2 °F /  11.2 °C 50.8 °F /  10.4 °C 29.43in /  996.5hPa South 1.5mph /  2.4km/h 6mph /  9.7km/h 95% 0.02in /  0.51mm 0 W/m2
18:29 52.2 °F /  11.2 °C 50.8 °F /  10.4 °C 29.43in /  996.5hPa South 3mph /  4.8km/h 7mph /  11.3km/h 95% 0.02in /  0.51mm 0 W/m2
18:34 52.3 °F /  11.3 °C 50.9 °F /  10.5 °C 29.43in /  996.5hPa SSE 2.1mph /  3.4km/h 7mph /  11.3km/h 95% 0.02in /  0.51mm 0 W/m2
18:39 52.2 °F /  11.2 °C 50.8 °F /  10.4 °C 29.43in /  996.5hPa South 1.6mph /  2.6km/h 6mph /  9.7km/h 95% 0.01in /  0.25mm 0 W/m2
18:44 52.2 °F /  11.2 °C 50.8 °F /  10.4 °C 29.42in /  996.2hPa South 1.9mph /  3.1km/h 6mph /  9.7km/h 95% 0.01in /  0.25mm 0 W/m2
18:49 52.2 °F /  11.2 °C 50.8 °F /  10.4 °C 29.41in /  995.8hPa South 2.2mph /  3.5km/h 6mph /  9.7km/h 95% 0.01in /  0.25mm 0 W/m2
18:54 52.2 °F /  11.2 °C 50.8 °F /  10.4 °C 29.40in /  995.5hPa South 1.8mph /  2.9km/h 6mph /  9.7km/h 95% 0.01in /  0.25mm 0 W/m2
18:59 52.2 °F /  11.2 °C 50.8 °F /  10.4 °C 29.39in /  995.1hPa South 2.5mph /  4km/h 8mph /  12.9km/h 95% 0.01in /  0.25mm 0 W/m2
19:04 52.3 °F /  11.3 °C 50.9 °F /  10.5 °C 29.39in /  995.1hPa South 1mph /  1.6km/h 8mph /  12.9km/h 95% 0.01in /  0.25mm 0 W/m2
19:09 52.3 °F /  11.3 °C 51 °F /  10.6 °C 29.37in /  994.5hPa South 0.5mph /  0.8km/h 4mph /  6.4km/h 95% 0.01in /  0.25mm 0 W/m2
19:14 52.4 °F /  11.3 °C 51 °F /  10.6 °C 29.37in /  994.5hPa South 0.5mph /  0.8km/h 4mph /  6.4km/h 95% 0.01in /  0.25mm 0 W/m2
19:19 52.5 °F /  11.4 °C 51.1 °F /  10.6 °C 29.37in /  994.5hPa South 0.7mph /  1.1km/h 4mph /  6.4km/h 95% 0.01in /  0.25mm 0 W/m2
19:24 52.6 °F /  11.4 °C 51.2 °F /  10.7 °C 29.36in /  994.1hPa South 0.7mph /  1.1km/h 4mph /  6.4km/h 95% 0.01in /  0.25mm 0 W/m2
19:29 52.7 °F /  11.5 °C 51.5 °F /  10.8 °C 29.35in /  993.8hPa South 0.3mph /  0.5km/h 5mph /  8km/h 95.6% 0.01in /  0.25mm 0 W/m2
19:34 52.8 °F /  11.6 °C 51.7 °F /  10.9 °C 29.35in /  993.8hPa South 0.1mph /  0.2km/h 5mph /  8km/h 96% 0.01in /  0.25mm 0 W/m2
19:39 53 °F /  11.7 °C 51.9 °F /  11.1 °C 29.34in /  993.5hPa South 0.8mph /  1.3km/h 4mph /  6.4km/h 96% 0.01in /  0.25mm 0 W/m2
19:44 53.2 °F /  11.8 °C 52.1 °F /  11.2 °C 29.34in /  993.5hPa South 0.9mph /  1.4km/h 4mph /  6.4km/h 96% 0.04in /  1.02mm 0 W/m2
19:49 53.4 °F /  11.9 °C 52.3 °F /  11.3 °C 29.34in /  993.5hPa Calm   4mph /  6.4km/h 96% 0.04in /  1.02mm 0 W/m2
19:54 53.5 °F /  11.9 °C 52.4 °F /  11.3 °C 29.33in /  993.1hPa Calm   4mph /  6.4km/h 96% 0.05in /  1.27mm 0 W/m2
19:59 53.5 °F /  11.9 °C 52.4 °F /  11.3 °C 29.33in /  993.1hPa Calm   4mph /  6.4km/h 96% 0.05in /  1.27mm 0 W/m2
20:00 53.5 °F /  11.9 °C 52.4 °F /  11.3 °C 29.33in /  993.1hPa Calm   4mph /  6.4km/h 96% 0.05in /  1.27mm 0 W/m2
20:09 53.5 °F /  11.9 °C 52.3 °F /  11.3 °C 29.33in /  993.1hPa Calm     96% 0.05in /  1.27mm 0 W/m2
20:14 53.4 °F /  11.9 °C 52.3 °F /  11.3 °C 29.32in /  992.8hPa Calm     96% 0.05in /  1.27mm 0 W/m2
20:19 53.3 °F /  11.8 °C 52.2 °F /  11.2 °C 29.31in /  992.4hPa Calm     96% 0.05in /  1.27mm 0 W/m2
20:24 53.3 °F /  11.8 °C 52.2 °F /  11.2 °C 29.32in /  992.8hPa Calm     96% 0.05in /  1.27mm 0 W/m2
20:29 53.4 °F /  11.9 °C 52.3 °F /  11.3 °C 29.31in /  992.4hPa Calm     96% 0.06in /  1.52mm 0 W/m2
20:34 53.7 °F /  12.1 °C 52.6 °F /  11.4 °C 29.31in /  992.4hPa Calm     96% 0.06in /  1.52mm 0 W/m2
20:39 54 °F /  12.2 °C 52.9 °F /  11.6 °C 29.30in /  992.1hPa Calm     96% 0.05in /  1.27mm 0 W/m2
20:44 54.3 °F /  12.4 °C 53.2 °F /  11.8 °C 29.30in /  992.1hPa Calm     96% 0.05in /  1.27mm 0 W/m2
20:49 54.6 °F /  12.6 °C 53.5 °F /  11.9 °C 29.29in /  991.8hPa Calm     96% 0.05in /  1.27mm 0 W/m2
20:54 54.8 °F /  12.7 °C 53.7 °F /  12.1 °C 29.29in /  991.8hPa Calm     96% 0.05in /  1.27mm 0 W/m2
20:59 55 °F /  12.8 °C 53.9 °F /  12.2 °C 29.29in /  991.8hPa Calm     96% 0.05in /  1.27mm 0 W/m2
21:04 55.2 °F /  12.9 °C 54.1 °F /  12.3 °C 29.28in /  991.4hPa Calm     96% 0.05in /  1.27mm 0 W/m2
21:09 55.4 °F /  13 °C 54.5 °F /  12.5 °C 29.27in /  991.1hPa South 0.4mph /  0.6km/h 4mph /  6.4km/h 96.7% 0.01in /  0.25mm 0 W/m2
21:14 55.7 °F /  13.2 °C 54.6 °F /  12.6 °C 29.27in /  991.1hPa Calm   4mph /  6.4km/h 96% 0.01in /  0.25mm 0 W/m2
21:19 55.9 °F /  13.3 °C 54.8 °F /  12.7 °C 29.27in /  991.1hPa South 0.6mph /  1km/h 4mph /  6.4km/h 96% 0.01in /  0.25mm 0 W/m2
21:24 56.2 °F /  13.4 °C 55.1 °F /  12.8 °C 29.26in /  990.7hPa South 0.1mph /  0.2km/h 4mph /  6.4km/h 96% 0.02in /  0.51mm 0 W/m2
21:29 56.5 °F /  13.6 °C 55.4 °F /  13 °C 29.26in /  990.7hPa South 0.3mph /  0.5km/h 4mph /  6.4km/h 96% 0.02in /  0.51mm 0 W/m2
21:34 56.8 °F /  13.8 °C 55.7 °F /  13.2 °C 29.26in /  990.7hPa South 1.7mph /  2.7km/h 6mph /  9.7km/h 96% 0.02in /  0.51mm 0 W/m2
21:39 57.1 °F /  13.9 °C 55.9 °F /  13.3 °C 29.26in /  990.7hPa SW 2.7mph /  4.3km/h 10mph /  16.1km/h 96% 0.01in /  0.25mm 0 W/m2
21:44 57.4 °F /  14.1 °C 56.4 °F /  13.6 °C 29.27in /  991.1hPa SW 5.1mph /  8.2km/h 15mph /  24.1km/h 96.4% 0.01in /  0.25mm 0 W/m2
21:49 57.7 °F /  14.3 °C 56.7 °F /  13.7 °C 29.27in /  991.1hPa WSW 2.6mph /  4.2km/h 15mph /  24.1km/h 96.4% 0.01in /  0.25mm 0 W/m2
21:54 57.7 °F /  14.3 °C 56.5 °F /  13.6 °C 29.27in /  991.1hPa WSW 1mph /  1.6km/h 15mph /  24.1km/h 96% 0.01in /  0.25mm 0 W/m2
21:59 57.4 °F /  14.1 °C 56.3 °F /  13.5 °C 29.27in /  991.1hPa WSW 4mph /  6.4km/h 17mph /  27.4km/h 96% 0.01in /  0.25mm 0 W/m2
22:04 57 °F /  13.9 °C 55.9 °F /  13.3 °C 29.27in /  991.1hPa WSW 4.4mph /  7.1km/h 17mph /  27.4km/h 96% 0.01in /  0.25mm 0 W/m2
22:09 56.6 °F /  13.7 °C 55.5 °F /  13.1 °C 29.27in /  991.1hPa WSW 1.6mph /  2.6km/h 17mph /  27.4km/h 96% 0.01in /  0.25mm 0 W/m2
22:14 56.3 °F /  13.5 °C 55.2 °F /  12.9 °C 29.27in /  991.1hPa SW 2.8mph /  4.5km/h 17mph /  27.4km/h 96% 0.01in /  0.25mm 0 W/m2
22:19 56.2 °F /  13.4 °C 55.1 °F /  12.8 °C 29.27in /  991.1hPa WSW 0.6mph /  1km/h 17mph /  27.4km/h 96% 0.01in /  0.25mm 0 W/m2
22:24 56.2 °F /  13.4 °C 55 °F /  12.8 °C 29.27in /  991.1hPa WSW 0.5mph /  0.8km/h 17mph /  27.4km/h 96% 0.01in /  0.25mm 0 W/m2
22:29 56 °F /  13.3 °C 54.9 °F /  12.7 °C 29.27in /  991.1hPa WSW 0.6mph /  1km/h 17mph /  27.4km/h 96% 0.01in /  0.25mm 0 W/m2
22:34 55.9 °F /  13.3 °C 54.8 °F /  12.7 °C 29.27in /  991.1hPa WSW 2mph /  3.2km/h 17mph /  27.4km/h 96% 0.01in /  0.25mm 0 W/m2
22:39 55.9 °F /  13.3 °C 54.6 °F /  12.6 °C 29.28in /  991.4hPa WSW 0.8mph /  1.3km/h 11mph /  17.7km/h 95.5% 0.00in /  0mm 0 W/m2
22:44 55.7 °F /  13.2 °C 54.3 °F /  12.4 °C 29.29in /  991.8hPa WSW 2.8mph /  4.5km/h 11mph /  17.7km/h 95% 0.00in /  0mm 0 W/m2
22:49 55.5 °F /  13.1 °C 54.1 °F /  12.3 °C 29.28in /  991.4hPa WSW 3.3mph /  5.3km/h 13mph /  20.9km/h 95% 0.00in /  0mm 0 W/m2
22:54 55.3 °F /  12.9 °C 53.9 °F /  12.2 °C 29.29in /  991.8hPa WSW 2.8mph /  4.5km/h 17mph /  27.4km/h 95% 0.00in /  0mm 0 W/m2
22:59 55.1 °F /  12.8 °C 53.4 °F /  11.9 °C 29.29in /  991.8hPa West 5.8mph /  9.3km/h 23mph /  37km/h 94.1% 0.00in /  0mm 0 W/m2
23:00 55 °F /  12.8 °C 53.3 °F /  11.8 °C 29.29in /  991.8hPa WSW 11mph /  17.7km/h 23mph /  37km/h 94% 0.00in /  0mm 0 W/m2
23:09 55 °F /  12.8 °C 52.9 °F /  11.6 °C 29.30in /  992.1hPa WSW 2.5mph /  4km/h 15mph /  24.1km/h 92.6% 0.00in /  0mm 0 W/m2
23:14 54.8 °F /  12.7 °C 52.6 °F /  11.4 °C 29.30in /  992.1hPa WSW 3.8mph /  6.1km/h 16mph /  25.7km/h 92% 0.00in /  0mm 0 W/m2
23:19 54.7 °F /  12.6 °C 52.1 °F /  11.2 °C 29.30in /  992.1hPa WSW 4.1mph /  6.6km/h 21mph /  33.8km/h 91% 0.00in /  0mm 0 W/m2
23:24 54.4 °F /  12.4 °C 51.6 °F /  10.9 °C 29.30in /  992.1hPa WSW 2.4mph /  3.9km/h 21mph /  33.8km/h 90.2% 0.00in /  0mm 0 W/m2
23:29 54.2 °F /  12.3 °C 51.3 °F /  10.7 °C 29.30in /  992.1hPa SW 1.4mph /  2.3km/h 21mph /  33.8km/h 90% 0.00in /  0mm 0 W/m2
23:34 54 °F /  12.2 °C 50.9 °F /  10.5 °C 29.30in /  992.1hPa WSW 0.5mph /  0.8km/h 21mph /  33.8km/h 89.3% 0.00in /  0mm 0 W/m2
23:39 53.7 °F /  12.1 °C 50.6 °F /  10.3 °C 29.31in /  992.4hPa West 1.2mph /  1.9km/h 9mph /  14.5km/h 89% 0.00in /  0mm 0 W/m2
23:44 53.5 °F /  11.9 °C 50.3 °F /  10.2 °C 29.31in /  992.4hPa West 0.6mph /  1km/h 9mph /  14.5km/h 89% 0.00in /  0mm 0 W/m2
23:49 53.3 °F /  11.8 °C 50.3 °F /  10.2 °C 29.31in /  992.4hPa WSW 1.7mph /  2.7km/h 10mph /  16.1km/h 89.4% 0.00in /  0mm 0 W/m2
23:54 53.1 °F /  11.7 °C 49.9 °F /  9.9 °C 29.30in /  992.1hPa SW 2.2mph /  3.5km/h 15mph /  24.1km/h 89% 0.00in /  0mm 0 W/m2
23:59 52.9 °F /  11.6 °C 49.7 °F /  9.8 °C 29.30in /  992.1hPa WSW 0.7mph /  1.1km/h 15mph /  24.1km/h 89% 0.00in /  0mm 0 W/m2
Hartford County Weather
Compliments of Weather Underground - 4 mb